BKP100 VTSM-VTBS
Flight info
| Callsign | BKP100 |
|---|---|
| Flight time | 0h 50m |
| Altitude | 38000 |
| Route | OLBAG1A OLBAG Y17 DONSI M769 LEBIM LEBIM1C |
| Aircraft | A319/M-SDE3FGHIRWY/LB1 |
Departure
| Time | 2026-04-21 20:34 |
|---|---|
| Airport | Samui International Airport (VTSM) |
Arrival
| Time | 2026-04-21 21:25 |
|---|---|
| Airport | Suvarnabhumi Airport (VTBS) |
| Time | Latitude | Longitude | Altitude | Speed | Heading |
|---|---|---|---|---|---|
| 2026-04-21 20:17 | 9.55083 | 100.06345 | 53 ft | 0 kts | 84° |
| 2026-04-21 20:28 | 9.55081 | 100.06334 | 51 ft | 4 kts | 78° |
| 2026-04-21 20:28 | 9.55071 | 100.06312 | 53 ft | 4 kts | 34° |
| 2026-04-21 20:28 | 9.55054 | 100.06306 | 53 ft | 0 kts | 354° |
| 2026-04-21 20:31 | 9.55060 | 100.06305 | 55 ft | 3 kts | 354° |
| 2026-04-21 20:31 | 9.55095 | 100.06302 | 53 ft | 7 kts | 351° |
| 2026-04-21 20:31 | 9.55118 | 100.06261 | 53 ft | 8 kts | 265° |
| 2026-04-21 20:31 | 9.55139 | 100.06210 | 51 ft | 10 kts | 348° |
| 2026-04-21 20:32 | 9.55214 | 100.06205 | 53 ft | 12 kts | 355° |
| 2026-04-21 20:32 | 9.55301 | 100.06198 | 50 ft | 13 kts | 355° |
| 2026-04-21 20:32 | 9.55399 | 100.06188 | 53 ft | 15 kts | 353° |
| 2026-04-21 20:32 | 9.55511 | 100.06175 | 53 ft | 17 kts | 355° |
| 2026-04-21 20:33 | 9.55640 | 100.06180 | 53 ft | 20 kts | 16° |
| 2026-04-21 20:33 | 9.55705 | 100.06160 | 53 ft | 10 kts | 250° |
| 2026-04-21 20:33 | 9.55651 | 100.06163 | 53 ft | 0 kts | 173° |
| 2026-04-21 20:33 | 9.55629 | 100.06166 | 51 ft | 21 kts | 173° |
| 2026-04-21 20:34 | 9.55233 | 100.06203 | 53 ft | 90 kts | 175° |
| 2026-04-21 20:34 | 9.54411 | 100.06286 | 59 ft | 145 kts | 174° |
| 2026-04-21 20:34 | 9.53403 | 100.06391 | 607 ft | 144 kts | 171° |
| 2026-04-21 20:34 | 9.52455 | 100.06788 | 1114 ft | 152 kts | 159° |
| 2026-04-21 20:35 | 9.51486 | 100.07187 | 1728 ft | 152 kts | 160° |
| 2026-04-21 20:35 | 9.50462 | 100.07595 | 2180 ft | 167 kts | 161° |
| 2026-04-21 20:35 | 9.49303 | 100.08051 | 2470 ft | 191 kts | 160° |
| 2026-04-21 20:35 | 9.48026 | 100.08556 | 2705 ft | 209 kts | 160° |
| 2026-04-21 20:36 | 9.46795 | 100.09418 | 3280 ft | 224 kts | 128° |
| 2026-04-21 20:36 | 9.46245 | 100.10889 | 4130 ft | 229 kts | 95° |
| 2026-04-21 20:36 | 9.46225 | 100.12502 | 5056 ft | 229 kts | 89° |
| 2026-04-21 20:36 | 9.46232 | 100.14113 | 6011 ft | 229 kts | 89° |
| 2026-04-21 20:37 | 9.46278 | 100.15733 | 6878 ft | 231 kts | 81° |
| 2026-04-21 20:37 | 9.46897 | 100.17231 | 7695 ft | 235 kts | 51° |
| 2026-04-21 20:37 | 9.48190 | 100.18238 | 8527 ft | 240 kts | 22° |
| 2026-04-21 20:37 | 9.49836 | 100.18605 | 9381 ft | 245 kts | 9° |
| 2026-04-21 20:38 | 9.51536 | 100.18871 | 10203 ft | 249 kts | 9° |
| 2026-04-21 20:38 | 9.52697 | 100.19053 | 10769 ft | 251 kts | 9° |
| 2026-04-21 20:38 | 9.54999 | 100.19394 | 11932 ft | 255 kts | 4° |
| 2026-04-21 20:38 | 9.56833 | 100.19395 | 12478 ft | 276 kts | 359° |
| 2026-04-21 20:39 | 9.58837 | 100.19354 | 12871 ft | 300 kts | 359° |
| 2026-04-21 20:39 | 9.61009 | 100.19305 | 13212 ft | 324 kts | 360° |
| 2026-04-21 20:39 | 9.62540 | 100.19271 | 13420 ft | 340 kts | 359° |
| 2026-04-21 20:39 | 9.64951 | 100.19221 | 13978 ft | 352 kts | 360° |
| 2026-04-21 20:40 | 9.68260 | 100.19155 | 14913 ft | 359 kts | 360° |
| 2026-04-21 20:40 | 9.70770 | 100.19111 | 15652 ft | 363 kts | 1° |
| 2026-04-21 20:40 | 9.72442 | 100.19233 | 16130 ft | 365 kts | 9° |
| 2026-04-21 20:40 | 9.74913 | 100.19853 | 16851 ft | 368 kts | 21° |
| 2026-04-21 20:41 | 9.77251 | 100.20932 | 17575 ft | 371 kts | 28° |
| 2026-04-21 20:41 | 9.79567 | 100.22108 | 18261 ft | 374 kts | 28° |
| 2026-04-21 20:41 | 9.81905 | 100.23294 | 18831 ft | 377 kts | 27° |
| 2026-04-21 20:41 | 9.84264 | 100.24491 | 19393 ft | 380 kts | 28° |
| 2026-04-21 20:42 | 9.86640 | 100.25695 | 19944 ft | 384 kts | 27° |
| 2026-04-21 20:42 | 9.89037 | 100.26907 | 20480 ft | 387 kts | 27° |
| 2026-04-21 20:42 | 9.91454 | 100.28129 | 20998 ft | 389 kts | 27° |
| 2026-04-21 20:42 | 9.93886 | 100.29360 | 21493 ft | 392 kts | 27° |
| 2026-04-21 20:43 | 9.96335 | 100.30598 | 21971 ft | 395 kts | 27° |
| 2026-04-21 20:43 | 9.98798 | 100.31855 | 22448 ft | 398 kts | 28° |
| 2026-04-21 20:43 | 10.01239 | 100.33196 | 22922 ft | 400 kts | 30° |
| 2026-04-21 20:43 | 10.03660 | 100.34609 | 23384 ft | 403 kts | 31° |
| 2026-04-21 20:44 | 10.06077 | 100.36059 | 23763 ft | 405 kts | 32° |
| 2026-04-21 20:44 | 10.08507 | 100.37523 | 24140 ft | 407 kts | 32° |
| 2026-04-21 20:44 | 10.10971 | 100.38873 | 24503 ft | 410 kts | 25° |
| 2026-04-21 20:44 | 10.13692 | 100.39780 | 24865 ft | 414 kts | 14° |
| 2026-04-21 20:45 | 10.16563 | 100.40144 | 25223 ft | 419 kts | 3° |
| 2026-04-21 20:45 | 10.19481 | 100.40204 | 25582 ft | 421 kts | 3° |
| 2026-04-21 20:45 | 10.22418 | 100.40265 | 25939 ft | 423 kts | 3° |
| 2026-04-21 20:45 | 10.25365 | 100.40331 | 26287 ft | 425 kts | 3° |
| 2026-04-21 20:46 | 10.28332 | 100.40402 | 26639 ft | 427 kts | 3° |
| 2026-04-21 20:46 | 10.31309 | 100.40477 | 26982 ft | 429 kts | 3° |
| 2026-04-21 20:46 | 10.34301 | 100.40552 | 27328 ft | 432 kts | 3° |
| 2026-04-21 20:46 | 10.37312 | 100.40627 | 27672 ft | 434 kts | 3° |
| 2026-04-21 20:47 | 10.40336 | 100.40700 | 28009 ft | 436 kts | 3° |
| 2026-04-21 20:47 | 10.43375 | 100.40775 | 28334 ft | 438 kts | 3° |
| 2026-04-21 20:47 | 10.46428 | 100.40851 | 28665 ft | 440 kts | 3° |
| 2026-04-21 20:47 | 10.49497 | 100.40925 | 28999 ft | 442 kts | 3° |
| 2026-04-21 20:48 | 10.52583 | 100.40998 | 29319 ft | 444 kts | 3° |
| 2026-04-21 20:48 | 10.55683 | 100.41072 | 29637 ft | 447 kts | 3° |
| 2026-04-21 20:48 | 10.58801 | 100.41148 | 29945 ft | 449 kts | 3° |
| 2026-04-21 20:48 | 10.61928 | 100.41225 | 30213 ft | 451 kts | 3° |
| 2026-04-21 20:49 | 10.65072 | 100.41301 | 30476 ft | 453 kts | 3° |
| 2026-04-21 20:49 | 10.68229 | 100.41376 | 30742 ft | 455 kts | 3° |
| 2026-04-21 20:49 | 10.71400 | 100.41453 | 31006 ft | 456 kts | 3° |
| 2026-04-21 20:49 | 10.74579 | 100.41531 | 31263 ft | 458 kts | 2° |
| 2026-04-21 20:50 | 10.77771 | 100.41609 | 31516 ft | 460 kts | 2° |
| 2026-04-21 20:50 | 10.80977 | 100.41686 | 31769 ft | 461 kts | 2° |
| 2026-04-21 20:50 | 10.84186 | 100.41761 | 32132 ft | 461 kts | 2° |
| 2026-04-21 20:50 | 10.87384 | 100.41834 | 32512 ft | 460 kts | 2° |
| 2026-04-21 20:51 | 10.90578 | 100.41910 | 32899 ft | 458 kts | 2° |
| 2026-04-21 20:51 | 10.93764 | 100.41987 | 33296 ft | 457 kts | 2° |
| 2026-04-21 20:51 | 10.96943 | 100.42066 | 33687 ft | 457 kts | 2° |
| 2026-04-21 20:51 | 11.00116 | 100.42146 | 34066 ft | 456 kts | 2° |
| 2026-04-21 20:52 | 11.03279 | 100.42225 | 34428 ft | 454 kts | 2° |
| 2026-04-21 20:52 | 11.06436 | 100.42302 | 34772 ft | 454 kts | 2° |
| 2026-04-21 20:52 | 11.09588 | 100.42378 | 35116 ft | 453 kts | 2° |
| 2026-04-21 20:52 | 11.12734 | 100.42455 | 35474 ft | 452 kts | 2° |
| 2026-04-21 20:53 | 11.15872 | 100.42531 | 35809 ft | 451 kts | 2° |
| 2026-04-21 20:53 | 11.19005 | 100.42604 | 36142 ft | 450 kts | 2° |
| 2026-04-21 20:53 | 11.22136 | 100.42677 | 36480 ft | 449 kts | 2° |
| 2026-04-21 20:53 | 11.25258 | 100.42750 | 36814 ft | 448 kts | 2° |
| 2026-04-21 20:54 | 11.28373 | 100.42827 | 37110 ft | 448 kts | 2° |
| 2026-04-21 20:54 | 11.31489 | 100.42905 | 37438 ft | 447 kts | 2° |
| 2026-04-21 20:54 | 11.34596 | 100.42982 | 37754 ft | 447 kts | 2° |
| 2026-04-21 20:54 | 11.37718 | 100.43057 | 37832 ft | 452 kts | 2° |
| 2026-04-21 20:55 | 11.44090 | 100.43211 | 37832 ft | 464 kts | 3° |
| 2026-04-21 20:55 | 11.50642 | 100.43374 | 37834 ft | 477 kts | 2° |
| 2026-04-21 20:56 | 11.53980 | 100.43457 | 37951 ft | 480 kts | 2° |
| 2026-04-21 20:56 | 11.57243 | 100.43537 | 38562 ft | 471 kts | 2° |
| 2026-04-21 20:56 | 11.60484 | 100.43616 | 38940 ft | 462 kts | 3° |
| 2026-04-21 20:56 | 11.63690 | 100.43695 | 38590 ft | 460 kts | 2° |
| 2026-04-21 20:57 | 11.66892 | 100.43776 | 38026 ft | 460 kts | 2° |
| 2026-04-21 20:57 | 11.70087 | 100.43858 | 37799 ft | 461 kts | 2° |
| 2026-04-21 20:57 | 11.76529 | 100.44022 | 37829 ft | 464 kts | 2° |
| 2026-04-21 20:58 | 11.82992 | 100.44177 | 37829 ft | 465 kts | 2° |
| 2026-04-21 20:58 | 11.89454 | 100.44336 | 37826 ft | 464 kts | 2° |
| 2026-04-21 20:59 | 11.95907 | 100.44497 | 37703 ft | 461 kts | 2° |
| 2026-04-21 20:59 | 11.99132 | 100.44577 | 37451 ft | 466 kts | 2° |
| 2026-04-21 20:59 | 12.02382 | 100.44658 | 37187 ft | 469 kts | 2° |
| 2026-04-21 21:00 | 12.05641 | 100.44741 | 36665 ft | 469 kts | 3° |
| 2026-04-21 21:00 | 12.08886 | 100.44826 | 36277 ft | 463 kts | 2° |
| 2026-04-21 21:00 | 12.12098 | 100.44909 | 35689 ft | 461 kts | 2° |
| 2026-04-21 21:00 | 12.15302 | 100.44990 | 35047 ft | 461 kts | 2° |
| 2026-04-21 21:01 | 12.18473 | 100.45069 | 36054 ft | 459 kts | 2° |
| 2026-04-21 21:01 | 12.21678 | 100.45149 | 33663 ft | 463 kts | 2° |
| 2026-04-21 21:01 | 12.24900 | 100.45230 | 32816 ft | 464 kts | 2° |
| 2026-04-21 21:01 | 12.28126 | 100.45312 | 32073 ft | 463 kts | 2° |
| 2026-04-21 21:02 | 12.31333 | 100.45392 | 31444 ft | 459 kts | 2° |
| 2026-04-21 21:02 | 12.34513 | 100.45471 | 30761 ft | 457 kts | 2° |
| 2026-04-21 21:02 | 12.37676 | 100.45551 | 30242 ft | 451 kts | 2° |
| 2026-04-21 21:02 | 12.40797 | 100.45631 | 29683 ft | 445 kts | 2° |
| 2026-04-21 21:03 | 12.43885 | 100.45710 | 29017 ft | 441 kts | 2° |
| 2026-04-21 21:03 | 12.46929 | 100.45788 | 28508 ft | 434 kts | 3° |
| 2026-04-21 21:03 | 12.49931 | 100.45860 | 27990 ft | 429 kts | 3° |
| 2026-04-21 21:03 | 12.52896 | 100.45931 | 27479 ft | 423 kts | 3° |
| 2026-04-21 21:04 | 12.55823 | 100.46003 | 26992 ft | 418 kts | 3° |
| 2026-04-21 21:04 | 12.58674 | 100.46073 | 26526 ft | 413 kts | 3° |
| 2026-04-21 21:04 | 12.61526 | 100.46146 | 26056 ft | 408 kts | 3° |
| 2026-04-21 21:04 | 12.64348 | 100.46216 | 25603 ft | 404 kts | 2° |
| 2026-04-21 21:05 | 12.67179 | 100.46285 | 25164 ft | 400 kts | 4° |
| 2026-04-21 21:05 | 12.69913 | 100.46355 | 24737 ft | 397 kts | 4° |
| 2026-04-21 21:05 | 12.72666 | 100.46429 | 24306 ft | 395 kts | 4° |
| 2026-04-21 21:05 | 12.75401 | 100.46503 | 23868 ft | 392 kts | 4° |
| 2026-04-21 21:06 | 12.78121 | 100.46575 | 23425 ft | 390 kts | 4° |
| 2026-04-21 21:06 | 12.80830 | 100.46644 | 22917 ft | 388 kts | 4° |
| 2026-04-21 21:06 | 12.83512 | 100.46713 | 22456 ft | 384 kts | 4° |
| 2026-04-21 21:06 | 12.86168 | 100.46780 | 22000 ft | 380 kts | 3° |
| 2026-04-21 21:07 | 12.88795 | 100.46845 | 21540 ft | 376 kts | 4° |
| 2026-04-21 21:07 | 12.91396 | 100.46909 | 21061 ft | 372 kts | 4° |
| 2026-04-21 21:07 | 12.93970 | 100.46974 | 20602 ft | 368 kts | 3° |
| 2026-04-21 21:07 | 12.96523 | 100.47039 | 20119 ft | 365 kts | 2° |
| 2026-04-21 21:08 | 12.99055 | 100.47103 | 19649 ft | 363 kts | 2° |
| 2026-04-21 21:08 | 13.01571 | 100.47167 | 19170 ft | 360 kts | 3° |
| 2026-04-21 21:08 | 13.04069 | 100.47230 | 18700 ft | 358 kts | 2° |
| 2026-04-21 21:08 | 13.06543 | 100.47357 | 18231 ft | 355 kts | 8° |
| 2026-04-21 21:09 | 13.08924 | 100.47954 | 17730 ft | 352 kts | 21° |
| 2026-04-21 21:09 | 13.11100 | 100.49063 | 17287 ft | 348 kts | 33° |
| 2026-04-21 21:09 | 13.13074 | 100.50483 | 16849 ft | 346 kts | 36° |
| 2026-04-21 21:09 | 13.15037 | 100.51905 | 16415 ft | 345 kts | 36° |
| 2026-04-21 21:10 | 13.16996 | 100.53318 | 15979 ft | 343 kts | 35° |
| 2026-04-21 21:10 | 13.18944 | 100.54722 | 15548 ft | 341 kts | 35° |
| 2026-04-21 21:10 | 13.20883 | 100.56119 | 15123 ft | 340 kts | 36° |
| 2026-04-21 21:10 | 13.22810 | 100.57513 | 14696 ft | 338 kts | 35° |
| 2026-04-21 21:11 | 13.24730 | 100.58903 | 14272 ft | 337 kts | 35° |
| 2026-04-21 21:11 | 13.26644 | 100.60288 | 13846 ft | 336 kts | 36° |
| 2026-04-21 21:11 | 13.28545 | 100.61665 | 13636 ft | 334 kts | 35° |
| 2026-04-21 21:11 | 13.30452 | 100.63042 | 13475 ft | 335 kts | 35° |
| 2026-04-21 21:12 | 13.32362 | 100.64419 | 13305 ft | 335 kts | 35° |
| 2026-04-21 21:12 | 13.34265 | 100.65793 | 13139 ft | 334 kts | 35° |
| 2026-04-21 21:12 | 13.36159 | 100.67163 | 12972 ft | 333 kts | 35° |
| 2026-04-21 21:12 | 13.38027 | 100.68513 | 12809 ft | 332 kts | 35° |
| 2026-04-21 21:13 | 13.39914 | 100.69876 | 12641 ft | 331 kts | 35° |
| 2026-04-21 21:13 | 13.41816 | 100.71253 | 12388 ft | 329 kts | 35° |
| 2026-04-21 21:13 | 13.43689 | 100.72608 | 12145 ft | 328 kts | 35° |
| 2026-04-21 21:13 | 13.45551 | 100.73953 | 11901 ft | 327 kts | 35° |
| 2026-04-21 21:14 | 13.47380 | 100.75274 | 11666 ft | 325 kts | 35° |
| 2026-04-21 21:14 | 13.49228 | 100.76612 | 11427 ft | 324 kts | 36° |
| 2026-04-21 21:14 | 13.51064 | 100.77947 | 11186 ft | 323 kts | 36° |
| 2026-04-21 21:14 | 13.52878 | 100.79263 | 10953 ft | 315 kts | 35° |
| 2026-04-21 21:15 | 13.54671 | 100.80503 | 10710 ft | 307 kts | 29° |
| 2026-04-21 21:15 | 13.56619 | 100.81328 | 10486 ft | 301 kts | 16° |
| 2026-04-21 21:15 | 13.58630 | 100.81878 | 10256 ft | 298 kts | 15° |
| 2026-04-21 21:15 | 13.60630 | 100.82421 | 10028 ft | 297 kts | 15° |
| 2026-04-21 21:16 | 13.62622 | 100.82960 | 9856 ft | 296 kts | 15° |
| 2026-04-21 21:16 | 13.64631 | 100.83507 | 9069 ft | 300 kts | 15° |
| 2026-04-21 21:16 | 13.66682 | 100.84068 | 8144 ft | 308 kts | 15° |
| 2026-04-21 21:16 | 13.68754 | 100.84634 | 7381 ft | 308 kts | 15° |
| 2026-04-21 21:17 | 13.70806 | 100.85195 | 6830 ft | 302 kts | 15° |
| 2026-04-21 21:17 | 13.72817 | 100.85747 | 6302 ft | 297 kts | 15° |
| 2026-04-21 21:17 | 13.74797 | 100.86292 | 5744 ft | 293 kts | 15° |
| 2026-04-21 21:17 | 13.76754 | 100.86829 | 5185 ft | 290 kts | 15° |
| 2026-04-21 21:18 | 13.78692 | 100.87362 | 4642 ft | 287 kts | 15° |
| 2026-04-21 21:18 | 13.80617 | 100.87889 | 4021 ft | 287 kts | 14° |
| 2026-04-21 21:18 | 13.82561 | 100.88344 | 3397 ft | 285 kts | 2° |
| 2026-04-21 21:18 | 13.84420 | 100.88017 | 3248 ft | 261 kts | 333° |
| 2026-04-21 21:19 | 13.85803 | 100.87006 | 3125 ft | 237 kts | 307° |
| 2026-04-21 21:19 | 13.86605 | 100.85614 | 3000 ft | 214 kts | 284° |
| 2026-04-21 21:19 | 13.86822 | 100.84148 | 2879 ft | 204 kts | 263° |
| 2026-04-21 21:19 | 13.86526 | 100.82748 | 2768 ft | 198 kts | 243° |
| 2026-04-21 21:20 | 13.85922 | 100.81501 | 2649 ft | 197 kts | 238° |
| 2026-04-21 21:20 | 13.85006 | 100.80464 | 2526 ft | 194 kts | 212° |
| 2026-04-21 21:20 | 13.83810 | 100.79953 | 2409 ft | 185 kts | 193° |
| 2026-04-21 21:20 | 13.82588 | 100.79634 | 2284 ft | 178 kts | 193° |
| 2026-04-21 21:21 | 13.81396 | 100.79321 | 2162 ft | 176 kts | 193° |
| 2026-04-21 21:21 | 13.80200 | 100.79006 | 2069 ft | 175 kts | 193° |
| 2026-04-21 21:21 | 13.79055 | 100.78705 | 1918 ft | 166 kts | 193° |
| 2026-04-21 21:21 | 13.77972 | 100.78419 | 1709 ft | 158 kts | 193° |
| 2026-04-21 21:22 | 13.76933 | 100.78145 | 1519 ft | 145 kts | 192° |
| 2026-04-21 21:22 | 13.76028 | 100.77907 | 1344 ft | 129 kts | 192° |
| 2026-04-21 21:22 | 13.75180 | 100.77683 | 1160 ft | 123 kts | 191° |
| 2026-04-21 21:22 | 13.74350 | 100.77464 | 1001 ft | 122 kts | 192° |
| 2026-04-21 21:23 | 13.73524 | 100.77247 | 867 ft | 123 kts | 192° |
| 2026-04-21 21:23 | 13.72701 | 100.77032 | 711 ft | 121 kts | 193° |
| 2026-04-21 21:23 | 13.71882 | 100.76818 | 572 ft | 121 kts | 192° |
| 2026-04-21 21:23 | 13.71048 | 100.76599 | 431 ft | 124 kts | 192° |
| 2026-04-21 21:24 | 13.70218 | 100.76381 | 268 ft | 123 kts | 191° |
| 2026-04-21 21:24 | 13.69396 | 100.76163 | 107 ft | 121 kts | 192° |
| 2026-04-21 21:24 | 13.68611 | 100.75953 | 18 ft | 103 kts | 191° |
| 2026-04-21 21:24 | 13.68051 | 100.75810 | 12 ft | 59 kts | 194° |
| 2026-04-21 21:25 | 13.67793 | 100.75742 | 13 ft | 31 kts | 193° |
| 2026-04-21 21:25 | 13.67588 | 100.75665 | 13 ft | 25 kts | 213° |
| 2026-04-21 21:25 | 13.67479 | 100.75573 | 15 ft | 19 kts | 221° |
| 2026-04-21 21:25 | 13.67444 | 100.75493 | 13 ft | 13 kts | 285° |
| 2026-04-21 21:26 | 13.67530 | 100.75480 | 13 ft | 15 kts | 13° |
| 2026-04-21 21:26 | 13.67635 | 100.75508 | 13 ft | 17 kts | 16° |
| 2026-04-21 21:26 | 13.67754 | 100.75540 | 15 ft | 18 kts | 13° |
| 2026-04-21 21:26 | 13.67882 | 100.75573 | 13 ft | 20 kts | 14° |
| 2026-04-21 21:27 | 13.68021 | 100.75610 | 13 ft | 22 kts | 14° |
| 2026-04-21 21:27 | 13.68176 | 100.75652 | 15 ft | 24 kts | 14° |
| 2026-04-21 21:27 | 13.68339 | 100.75693 | 14 ft | 25 kts | 14° |
| 2026-04-21 21:27 | 13.68511 | 100.75739 | 14 ft | 26 kts | 14° |
| 2026-04-21 21:28 | 13.68630 | 100.75770 | 15 ft | 27 kts | 14° |
| 2026-04-21 21:28 | 13.68819 | 100.75822 | 14 ft | 29 kts | 14° |
| 2026-04-21 21:28 | 13.69166 | 100.75907 | 13 ft | 22 kts | 14° |
| 2026-04-21 21:29 | 13.69322 | 100.75951 | 13 ft | 24 kts | 14° |
| 2026-04-21 21:29 | 13.69487 | 100.75966 | 13 ft | 12 kts | 315° |
| 2026-04-21 21:29 | 13.69514 | 100.75879 | 13 ft | 14 kts | 282° |
| 2026-04-21 21:29 | 13.69543 | 100.75775 | 15 ft | 16 kts | 284° |
| 2026-04-21 21:30 | 13.69484 | 100.75694 | 13 ft | 18 kts | 195° |
| 2026-04-21 21:30 | 13.69375 | 100.75667 | 13 ft | 8 kts | 193° |
| 2026-04-21 21:30 | 13.69360 | 100.75629 | 13 ft | 8 kts | 288° |
| 2026-04-21 21:30 | 13.69370 | 100.75591 | 14 ft | 9 kts | 284° |
| 2026-04-21 21:31 | 13.69376 | 100.75570 | 13 ft | 2 kts | 285° |
| 2026-04-21 21:31 | 13.69377 | 100.75564 | 13 ft | 0 kts | 285° |